< < Back
Terminal Aerodrome Forecast


Current Version              Previous Versions:   1  2  3  4  5  6  7  8  9  

Terminal Aerodrome Forecast

384
FTUS42 KILM 231722
TAFFLO
TAF
KFLO 231722Z 2318/2418 09010KT P6SM SKC
     FM232300 VRB03KT P6SM SKC
      TEMPO 2409/2412 3SM BR
     FM241400 12008KT P6SM SKC=

Latest METAR

613
SAUS70 KWBC 242100 RRO
MTRFLO
METAR KFLO 242053Z AUTO 14009KT 110V180 10SM CLR 28/13 A3031 RMK AO2
SLP262 T02830128 58013 TSNO


USA.gov is the U.S. government's official web portal to all federal, state and local government web resources and services.